sensor_id;sensor_type;location;lat;lon;timestamp;P1;durP1;ratioP1;P2;durP2;ratioP2
13255;SDS011;37913;48.370;10.930;2022-08-16T00:01:28;95.22;;;43.03;;
13255;SDS011;37913;48.370;10.930;2022-08-16T00:03:57;90.82;;;42.30;;
13255;SDS011;37913;48.370;10.930;2022-08-16T00:06:24;84.93;;;40.60;;
13255;SDS011;37913;48.370;10.930;2022-08-16T00:08:51;88.28;;;42.00;;
13255;SDS011;37913;48.370;10.930;2022-08-16T00:11:18;96.60;;;43.35;;
13255;SDS011;37913;48.370;10.930;2022-08-16T00:13:46;90.03;;;42.10;;
13255;SDS011;37913;48.370;10.930;2022-08-16T00:16:14;93.90;;;42.55;;
13255;SDS011;37913;48.370;10.930;2022-08-16T00:18:41;86.90;;;41.08;;
13255;SDS011;37913;48.370;10.930;2022-08-16T00:21:11;91.15;;;42.10;;
13255;SDS011;37913;48.370;10.930;2022-08-16T00:23:38;85.25;;;40.83;;
13255;SDS011;37913;48.370;10.930;2022-08-16T00:26:05;93.93;;;42.30;;
13255;SDS011;37913;48.370;10.930;2022-08-16T00:28:32;88.88;;;41.67;;
13255;SDS011;37913;48.370;10.930;2022-08-16T00:30:59;80.78;;;39.70;;
13255;SDS011;37913;48.370;10.930;2022-08-16T00:33:25;90.60;;;41.50;;
13255;SDS011;37913;48.370;10.930;2022-08-16T00:35:53;90.88;;;41.72;;
13255;SDS011;37913;48.370;10.930;2022-08-16T00:38:21;85.93;;;40.50;;
13255;SDS011;37913;48.370;10.930;2022-08-16T00:40:49;78.55;;;39.45;;
13255;SDS011;37913;48.370;10.930;2022-08-16T00:43:18;87.88;;;41.05;;
13255;SDS011;37913;48.370;10.930;2022-08-16T00:45:49;90.97;;;41.67;;
13255;SDS011;37913;48.370;10.930;2022-08-16T00:48:22;94.00;;;42.05;;
13255;SDS011;37913;48.370;10.930;2022-08-16T00:50:49;93.97;;;42.13;;
13255;SDS011;37913;48.370;10.930;2022-08-16T00:53:16;96.20;;;42.28;;
13255;SDS011;37913;48.370;10.930;2022-08-16T00:55:46;96.50;;;42.38;;
13255;SDS011;37913;48.370;10.930;2022-08-16T00:58:16;86.45;;;40.55;;
13255;SDS011;37913;48.370;10.930;2022-08-16T01:00:45;91.95;;;41.17;;
13255;SDS011;37913;48.370;10.930;2022-08-16T01:03:14;90.85;;;40.88;;
13255;SDS011;37913;48.370;10.930;2022-08-16T01:05:43;84.40;;;40.28;;
13255;SDS011;37913;48.370;10.930;2022-08-16T01:08:13;86.13;;;40.47;;
13255;SDS011;37913;48.370;10.930;2022-08-16T01:10:42;85.68;;;40.08;;
13255;SDS011;37913;48.370;10.930;2022-08-16T01:13:11;92.70;;;41.83;;
13255;SDS011;37913;48.370;10.930;2022-08-16T01:15:43;87.60;;;40.30;;
13255;SDS011;37913;48.370;10.930;2022-08-16T01:18:15;95.15;;;41.38;;
13255;SDS011;37913;48.370;10.930;2022-08-16T01:20:47;91.90;;;41.35;;
13255;SDS011;37913;48.370;10.930;2022-08-16T01:23:26;88.00;;;40.42;;
13255;SDS011;37913;48.370;10.930;2022-08-16T01:25:58;86.63;;;40.35;;
13255;SDS011;37913;48.370;10.930;2022-08-16T01:28:25;85.65;;;40.30;;
13255;SDS011;37913;48.370;10.930;2022-08-16T01:30:55;91.43;;;40.88;;
13255;SDS011;37913;48.370;10.930;2022-08-16T01:33:23;88.53;;;40.53;;
13255;SDS011;37913;48.370;10.930;2022-08-16T01:35:51;88.68;;;40.58;;
13255;SDS011;37913;48.370;10.930;2022-08-16T01:38:22;89.55;;;40.38;;
13255;SDS011;37913;48.370;10.930;2022-08-16T01:40:52;93.22;;;40.90;;
13255;SDS011;37913;48.370;10.930;2022-08-16T01:43:22;101.25;;;42.50;;
13255;SDS011;37913;48.370;10.930;2022-08-16T01:45:51;92.18;;;40.63;;
13255;SDS011;37913;48.370;10.930;2022-08-16T01:48:20;88.90;;;40.35;;
13255;SDS011;37913;48.370;10.930;2022-08-16T01:50:50;91.10;;;40.70;;
13255;SDS011;37913;48.370;10.930;2022-08-16T01:53:17;88.40;;;39.92;;
13255;SDS011;37913;48.370;10.930;2022-08-16T01:55:44;79.55;;;38.22;;
13255;SDS011;37913;48.370;10.930;2022-08-16T01:58:11;81.35;;;38.58;;
13255;SDS011;37913;48.370;10.930;2022-08-16T02:00:42;94.38;;;41.33;;
13255;SDS011;37913;48.370;10.930;2022-08-16T02:03:10;91.85;;;41.38;;
13255;SDS011;37913;48.370;10.930;2022-08-16T02:05:38;85.70;;;39.85;;
13255;SDS011;37913;48.370;10.930;2022-08-16T02:08:06;73.78;;;38.08;;
13255;SDS011;37913;48.370;10.930;2022-08-16T02:10:34;89.57;;;40.88;;
13255;SDS011;37913;48.370;10.930;2022-08-16T02:13:02;85.95;;;39.55;;
13255;SDS011;37913;48.370;10.930;2022-08-16T02:15:30;87.03;;;39.85;;
13255;SDS011;37913;48.370;10.930;2022-08-16T02:18:00;84.05;;;39.60;;
13255;SDS011;37913;48.370;10.930;2022-08-16T02:20:28;84.80;;;39.65;;
13255;SDS011;37913;48.370;10.930;2022-08-16T02:22:57;85.60;;;39.20;;
13255;SDS011;37913;48.370;10.930;2022-08-16T02:25:26;90.35;;;40.47;;
13255;SDS011;37913;48.370;10.930;2022-08-16T02:27:53;83.93;;;39.33;;
13255;SDS011;37913;48.370;10.930;2022-08-16T02:30:21;84.03;;;38.75;;
13255;SDS011;37913;48.370;10.930;2022-08-16T02:32:50;89.47;;;39.92;;
13255;SDS011;37913;48.370;10.930;2022-08-16T02:35:18;83.50;;;38.83;;
13255;SDS011;37913;48.370;10.930;2022-08-16T02:37:46;89.32;;;39.95;;
13255;SDS011;37913;48.370;10.930;2022-08-16T02:40:13;88.13;;;39.70;;
13255;SDS011;37913;48.370;10.930;2022-08-16T02:42:41;87.13;;;39.80;;
13255;SDS011;37913;48.370;10.930;2022-08-16T02:45:08;81.78;;;38.42;;
13255;SDS011;37913;48.370;10.930;2022-08-16T02:47:36;85.75;;;39.45;;
13255;SDS011;37913;48.370;10.930;2022-08-16T02:50:03;88.72;;;39.88;;
13255;SDS011;37913;48.370;10.930;2022-08-16T02:52:33;88.20;;;39.70;;
13255;SDS011;37913;48.370;10.930;2022-08-16T02:55:00;87.72;;;39.60;;
13255;SDS011;37913;48.370;10.930;2022-08-16T02:57:27;81.97;;;38.97;;
13255;SDS011;37913;48.370;10.930;2022-08-16T02:59:55;88.30;;;39.42;;
13255;SDS011;37913;48.370;10.930;2022-08-16T03:02:22;89.93;;;39.75;;
13255;SDS011;37913;48.370;10.930;2022-08-16T03:04:49;106.15;;;42.88;;
13255;SDS011;37913;48.370;10.930;2022-08-16T03:07:17;84.78;;;38.70;;
13255;SDS011;37913;48.370;10.930;2022-08-16T03:09:46;79.18;;;37.80;;
13255;SDS011;37913;48.370;10.930;2022-08-16T03:12:13;84.75;;;38.35;;
13255;SDS011;37913;48.370;10.930;2022-08-16T03:14:40;81.55;;;38.22;;
13255;SDS011;37913;48.370;10.930;2022-08-16T03:17:07;82.82;;;38.40;;
13255;SDS011;37913;48.370;10.930;2022-08-16T03:19:34;88.13;;;39.17;;
13255;SDS011;37913;48.370;10.930;2022-08-16T03:22:01;87.05;;;38.85;;
13255;SDS011;37913;48.370;10.930;2022-08-16T03:24:28;82.40;;;37.97;;
13255;SDS011;37913;48.370;10.930;2022-08-16T03:26:58;103.35;;;42.25;;
13255;SDS011;37913;48.370;10.930;2022-08-16T03:29:26;85.10;;;38.88;;
13255;SDS011;37913;48.370;10.930;2022-08-16T03:31:53;85.53;;;38.60;;
13255;SDS011;37913;48.370;10.930;2022-08-16T03:34:20;84.28;;;38.30;;
13255;SDS011;37913;48.370;10.930;2022-08-16T03:36:47;85.22;;;38.20;;
13255;SDS011;37913;48.370;10.930;2022-08-16T03:39:14;82.40;;;38.00;;
13255;SDS011;37913;48.370;10.930;2022-08-16T03:41:41;87.32;;;38.88;;
13255;SDS011;37913;48.370;10.930;2022-08-16T03:44:10;88.05;;;39.15;;
13255;SDS011;37913;48.370;10.930;2022-08-16T03:46:37;88.97;;;39.55;;
13255;SDS011;37913;48.370;10.930;2022-08-16T03:49:04;97.13;;;40.85;;
13255;SDS011;37913;48.370;10.930;2022-08-16T03:51:35;107.70;;;41.95;;
13255;SDS011;37913;48.370;10.930;2022-08-16T03:54:02;95.82;;;40.70;;
13255;SDS011;37913;48.370;10.930;2022-08-16T03:56:29;92.75;;;39.95;;
13255;SDS011;37913;48.370;10.930;2022-08-16T03:58:57;93.13;;;40.17;;
13255;SDS011;37913;48.370;10.930;2022-08-16T04:01:25;77.05;;;37.38;;
13255;SDS011;37913;48.370;10.930;2022-08-16T04:03:52;95.90;;;41.22;;
13255;SDS011;37913;48.370;10.930;2022-08-16T04:06:20;96.53;;;40.95;;
13255;SDS011;37913;48.370;10.930;2022-08-16T04:08:47;85.65;;;38.42;;
13255;SDS011;37913;48.370;10.930;2022-08-16T04:11:14;91.93;;;39.65;;
13255;SDS011;37913;48.370;10.930;2022-08-16T04:13:41;88.05;;;39.10;;
13255;SDS011;37913;48.370;10.930;2022-08-16T04:16:08;94.07;;;40.42;;
13255;SDS011;37913;48.370;10.930;2022-08-16T04:18:37;89.15;;;39.42;;
13255;SDS011;37913;48.370;10.930;2022-08-16T04:21:07;86.85;;;38.80;;
13255;SDS011;37913;48.370;10.930;2022-08-16T04:23:34;86.53;;;38.70;;
13255;SDS011;37913;48.370;10.930;2022-08-16T04:26:02;94.47;;;41.10;;
13255;SDS011;37913;48.370;10.930;2022-08-16T04:28:29;82.40;;;38.28;;
13255;SDS011;37913;48.370;10.930;2022-08-16T04:30:56;86.53;;;39.38;;
13255;SDS011;37913;48.370;10.930;2022-08-16T04:33:23;91.07;;;39.63;;
13255;SDS011;37913;48.370;10.930;2022-08-16T04:35:52;88.18;;;39.35;;
13255;SDS011;37913;48.370;10.930;2022-08-16T04:38:21;82.00;;;37.95;;
13255;SDS011;37913;48.370;10.930;2022-08-16T04:40:48;86.80;;;38.83;;
13255;SDS011;37913;48.370;10.930;2022-08-16T04:43:15;85.82;;;39.17;;
13255;SDS011;37913;48.370;10.930;2022-08-16T04:45:42;91.43;;;39.83;;
13255;SDS011;37913;48.370;10.930;2022-08-16T04:48:10;89.43;;;39.78;;
13255;SDS011;37913;48.370;10.930;2022-08-16T04:50:37;89.55;;;39.92;;
13255;SDS011;37913;48.370;10.930;2022-08-16T04:53:05;89.50;;;40.08;;
13255;SDS011;37913;48.370;10.930;2022-08-16T04:55:32;94.15;;;41.33;;
13255;SDS011;37913;48.370;10.930;2022-08-16T04:57:59;92.28;;;41.50;;
13255;SDS011;37913;48.370;10.930;2022-08-16T05:00:27;89.43;;;41.03;;
13255;SDS011;37913;48.370;10.930;2022-08-16T05:02:59;85.05;;;40.55;;
13255;SDS011;37913;48.370;10.930;2022-08-16T05:05:29;84.20;;;40.08;;
13255;SDS011;37913;48.370;10.930;2022-08-16T05:07:56;88.15;;;41.00;;
13255;SDS011;37913;48.370;10.930;2022-08-16T05:10:24;85.80;;;39.88;;
13255;SDS011;37913;48.370;10.930;2022-08-16T05:12:51;92.88;;;42.05;;
13255;SDS011;37913;48.370;10.930;2022-08-16T05:15:18;86.97;;;40.78;;
13255;SDS011;37913;48.370;10.930;2022-08-16T05:17:46;88.68;;;40.70;;
13255;SDS011;37913;48.370;10.930;2022-08-16T05:20:13;84.93;;;40.40;;
13255;SDS011;37913;48.370;10.930;2022-08-16T05:22:40;86.45;;;40.17;;
13255;SDS011;37913;48.370;10.930;2022-08-16T05:25:09;83.32;;;39.72;;
13255;SDS011;37913;48.370;10.930;2022-08-16T05:27:38;89.07;;;41.03;;
13255;SDS011;37913;48.370;10.930;2022-08-16T05:30:06;83.57;;;40.75;;
13255;SDS011;37913;48.370;10.930;2022-08-16T05:32:36;93.45;;;43.17;;
13255;SDS011;37913;48.370;10.930;2022-08-16T05:35:03;98.97;;;44.42;;
13255;SDS011;37913;48.370;10.930;2022-08-16T05:37:32;84.30;;;41.80;;
13255;SDS011;37913;48.370;10.930;2022-08-16T05:39:59;92.38;;;44.53;;
13255;SDS011;37913;48.370;10.930;2022-08-16T05:42:26;93.30;;;43.42;;
13255;SDS011;37913;48.370;10.930;2022-08-16T05:44:54;97.70;;;43.95;;
13255;SDS011;37913;48.370;10.930;2022-08-16T05:47:21;91.90;;;43.92;;
13255;SDS011;37913;48.370;10.930;2022-08-16T05:49:48;86.53;;;43.08;;
13255;SDS011;37913;48.370;10.930;2022-08-16T05:52:15;85.97;;;42.75;;
13255;SDS011;37913;48.370;10.930;2022-08-16T05:54:42;103.43;;;46.30;;
13255;SDS011;37913;48.370;10.930;2022-08-16T05:57:10;119.15;;;48.70;;
13255;SDS011;37913;48.370;10.930;2022-08-16T05:59:37;94.55;;;44.70;;
13255;SDS011;37913;48.370;10.930;2022-08-16T06:02:06;88.18;;;42.92;;
13255;SDS011;37913;48.370;10.930;2022-08-16T06:04:33;92.90;;;45.08;;
13255;SDS011;37913;48.370;10.930;2022-08-16T06:07:00;91.25;;;44.92;;
13255;SDS011;37913;48.370;10.930;2022-08-16T06:09:30;90.10;;;44.13;;
13255;SDS011;37913;48.370;10.930;2022-08-16T06:11:57;88.25;;;43.72;;
13255;SDS011;37913;48.370;10.930;2022-08-16T06:14:25;85.25;;;43.85;;
13255;SDS011;37913;48.370;10.930;2022-08-16T06:16:53;90.25;;;44.67;;
13255;SDS011;37913;48.370;10.930;2022-08-16T06:19:21;89.43;;;44.97;;
13255;SDS011;37913;48.370;10.930;2022-08-16T06:21:48;84.22;;;43.97;;
13255;SDS011;37913;48.370;10.930;2022-08-16T06:24:15;95.30;;;46.70;;
13255;SDS011;37913;48.370;10.930;2022-08-16T06:26:42;95.50;;;47.42;;
13255;SDS011;37913;48.370;10.930;2022-08-16T06:29:09;93.88;;;47.92;;
13255;SDS011;37913;48.370;10.930;2022-08-16T06:31:36;100.93;;;48.58;;
13255;SDS011;37913;48.370;10.930;2022-08-16T06:34:03;93.80;;;48.20;;
13255;SDS011;37913;48.370;10.930;2022-08-16T06:36:32;99.03;;;49.78;;
13255;SDS011;37913;48.370;10.930;2022-08-16T06:38:59;90.40;;;47.95;;
13255;SDS011;37913;48.370;10.930;2022-08-16T06:41:25;97.90;;;49.63;;
13255;SDS011;37913;48.370;10.930;2022-08-16T06:43:52;103.60;;;51.22;;
13255;SDS011;37913;48.370;10.930;2022-08-16T06:46:22;103.43;;;51.42;;
13255;SDS011;37913;48.370;10.930;2022-08-16T06:48:50;103.28;;;51.65;;
13255;SDS011;37913;48.370;10.930;2022-08-16T06:51:17;103.70;;;53.78;;
13255;SDS011;37913;48.370;10.930;2022-08-16T06:53:45;99.55;;;51.38;;
13255;SDS011;37913;48.370;10.930;2022-08-16T06:56:12;99.00;;;52.40;;
13255;SDS011;37913;48.370;10.930;2022-08-16T06:58:39;95.22;;;52.90;;
13255;SDS011;37913;48.370;10.930;2022-08-16T07:01:06;96.05;;;53.50;;
13255;SDS011;37913;48.370;10.930;2022-08-16T07:03:33;90.05;;;53.80;;
13255;SDS011;37913;48.370;10.930;2022-08-16T07:06:00;109.20;;;59.80;;
13255;SDS011;37913;48.370;10.930;2022-08-16T07:08:28;107.30;;;58.55;;
13255;SDS011;37913;48.370;10.930;2022-08-16T07:10:57;102.57;;;58.70;;
13255;SDS011;37913;48.370;10.930;2022-08-16T07:13:24;103.40;;;58.97;;
13255;SDS011;37913;48.370;10.930;2022-08-16T07:15:52;114.40;;;63.00;;
13255;SDS011;37913;48.370;10.930;2022-08-16T07:18:19;89.95;;;57.55;;
13255;SDS011;37913;48.370;10.930;2022-08-16T07:20:46;105.18;;;62.13;;
13255;SDS011;37913;48.370;10.930;2022-08-16T07:23:15;95.10;;;61.28;;
13255;SDS011;37913;48.370;10.930;2022-08-16T07:25:42;100.53;;;62.45;;
13255;SDS011;37913;48.370;10.930;2022-08-16T07:28:12;102.40;;;63.30;;
13255;SDS011;37913;48.370;10.930;2022-08-16T07:30:41;103.43;;;64.28;;
13255;SDS011;37913;48.370;10.930;2022-08-16T07:33:08;102.43;;;64.22;;
13255;SDS011;37913;48.370;10.930;2022-08-16T07:35:38;105.05;;;65.82;;
13255;SDS011;37913;48.370;10.930;2022-08-16T07:38:06;105.90;;;65.50;;
13255;SDS011;37913;48.370;10.930;2022-08-16T07:40:34;99.57;;;63.63;;
13255;SDS011;37913;48.370;10.930;2022-08-16T07:43:02;104.88;;;66.65;;
13255;SDS011;37913;48.370;10.930;2022-08-16T07:45:31;105.05;;;67.72;;
13255;SDS011;37913;48.370;10.930;2022-08-16T07:47:58;106.40;;;68.60;;
13255;SDS011;37913;48.370;10.930;2022-08-16T07:50:25;111.50;;;72.05;;
13255;SDS011;37913;48.370;10.930;2022-08-16T07:52:53;107.25;;;74.50;;
13255;SDS011;37913;48.370;10.930;2022-08-16T07:55:20;106.18;;;76.13;;
13255;SDS011;37913;48.370;10.930;2022-08-16T07:57:47;105.35;;;77.43;;
13255;SDS011;37913;48.370;10.930;2022-08-16T08:00:14;112.03;;;81.60;;
13255;SDS011;37913;48.370;10.930;2022-08-16T08:02:43;98.55;;;79.78;;
13255;SDS011;37913;48.370;10.930;2022-08-16T08:05:11;119.00;;;86.72;;
13255;SDS011;37913;48.370;10.930;2022-08-16T08:07:38;117.78;;;86.53;;
13255;SDS011;37913;48.370;10.930;2022-08-16T08:10:05;104.53;;;85.75;;
13255;SDS011;37913;48.370;10.930;2022-08-16T08:12:34;104.18;;;87.07;;
13255;SDS011;37913;48.370;10.930;2022-08-16T08:15:01;124.43;;;97.28;;
13255;SDS011;37913;48.370;10.930;2022-08-16T08:17:29;117.15;;;96.13;;
13255;SDS011;37913;48.370;10.930;2022-08-16T08:19:59;118.07;;;96.93;;
13255;SDS011;37913;48.370;10.930;2022-08-16T08:22:26;111.63;;;95.35;;
13255;SDS011;37913;48.370;10.930;2022-08-16T08:24:53;126.80;;;98.50;;
13255;SDS011;37913;48.370;10.930;2022-08-16T08:27:20;111.88;;;99.70;;
13255;SDS011;37913;48.370;10.930;2022-08-16T08:29:47;112.38;;;100.47;;
13255;SDS011;37913;48.370;10.930;2022-08-16T08:32:14;113.05;;;101.18;;
13255;SDS011;37913;48.370;10.930;2022-08-16T08:34:44;117.10;;;102.93;;
13255;SDS011;37913;48.370;10.930;2022-08-16T08:37:12;118.53;;;105.93;;
13255;SDS011;37913;48.370;10.930;2022-08-16T08:39:39;116.90;;;105.43;;
13255;SDS011;37913;48.370;10.930;2022-08-16T08:42:07;120.80;;;108.60;;
13255;SDS011;37913;48.370;10.930;2022-08-16T08:44:34;121.53;;;109.50;;
13255;SDS011;37913;48.370;10.930;2022-08-16T08:47:01;118.70;;;106.90;;
13255;SDS011;37913;48.370;10.930;2022-08-16T08:49:31;116.95;;;106.00;;
13255;SDS011;37913;48.370;10.930;2022-08-16T08:51:58;119.82;;;107.72;;
13255;SDS011;37913;48.370;10.930;2022-08-16T08:54:26;124.32;;;111.72;;
13255;SDS011;37913;48.370;10.930;2022-08-16T08:56:54;121.65;;;109.72;;
13255;SDS011;37913;48.370;10.930;2022-08-16T08:59:21;124.43;;;112.30;;
13255;SDS011;37913;48.370;10.930;2022-08-16T09:01:48;133.88;;;119.18;;
13255;SDS011;37913;48.370;10.930;2022-08-16T09:04:16;125.47;;;114.18;;
13255;SDS011;37913;48.370;10.930;2022-08-16T09:06:43;128.52;;;116.25;;
13255;SDS011;37913;48.370;10.930;2022-08-16T09:09:10;126.72;;;114.20;;
13255;SDS011;37913;48.370;10.930;2022-08-16T09:11:39;121.05;;;109.90;;
13255;SDS011;37913;48.370;10.930;2022-08-16T09:14:08;123.18;;;111.18;;
13255;SDS011;37913;48.370;10.930;2022-08-16T09:16:35;128.55;;;115.75;;
13255;SDS011;37913;48.370;10.930;2022-08-16T09:19:02;129.88;;;116.70;;
13255;SDS011;37913;48.370;10.930;2022-08-16T09:21:30;129.10;;;116.18;;
13255;SDS011;37913;48.370;10.930;2022-08-16T09:23:57;128.90;;;116.13;;
13255;SDS011;37913;48.370;10.930;2022-08-16T09:26:24;134.73;;;122.65;;
13255;SDS011;37913;48.370;10.930;2022-08-16T09:28:52;131.57;;;119.65;;
13255;SDS011;37913;48.370;10.930;2022-08-16T09:31:20;137.73;;;124.72;;
13255;SDS011;37913;48.370;10.930;2022-08-16T09:33:49;137.55;;;124.68;;
13255;SDS011;37913;48.370;10.930;2022-08-16T09:36:18;133.75;;;122.07;;
13255;SDS011;37913;48.370;10.930;2022-08-16T09:38:45;137.57;;;126.35;;
13255;SDS011;37913;48.370;10.930;2022-08-16T09:41:12;137.43;;;125.18;;
13255;SDS011;37913;48.370;10.930;2022-08-16T09:43:40;139.15;;;126.57;;
13255;SDS011;37913;48.370;10.930;2022-08-16T09:46:09;134.75;;;122.40;;
13255;SDS011;37913;48.370;10.930;2022-08-16T09:48:36;133.93;;;121.80;;
13255;SDS011;37913;48.370;10.930;2022-08-16T09:51:05;141.73;;;128.38;;
13255;SDS011;37913;48.370;10.930;2022-08-16T09:53:33;135.32;;;123.57;;
13255;SDS011;37913;48.370;10.930;2022-08-16T09:56:01;133.20;;;121.60;;
13255;SDS011;37913;48.370;10.930;2022-08-16T09:58:29;136.30;;;123.90;;
13255;SDS011;37913;48.370;10.930;2022-08-16T10:00:56;138.75;;;125.45;;
13255;SDS011;37913;48.370;10.930;2022-08-16T10:03:25;132.70;;;120.53;;
13255;SDS011;37913;48.370;10.930;2022-08-16T10:05:52;137.25;;;124.47;;
13255;SDS011;37913;48.370;10.930;2022-08-16T10:08:19;140.05;;;127.85;;
13255;SDS011;37913;48.370;10.930;2022-08-16T10:10:46;140.48;;;128.30;;
13255;SDS011;37913;48.370;10.930;2022-08-16T10:13:27;139.82;;;126.70;;
13255;SDS011;37913;48.370;10.930;2022-08-16T10:15:54;138.30;;;126.13;;
13255;SDS011;37913;48.370;10.930;2022-08-16T10:18:25;142.00;;;129.43;;
13255;SDS011;37913;48.370;10.930;2022-08-16T10:20:54;142.75;;;130.13;;
13255;SDS011;37913;48.370;10.930;2022-08-16T10:23:22;147.20;;;134.73;;
13255;SDS011;37913;48.370;10.930;2022-08-16T10:25:50;140.07;;;127.65;;
13255;SDS011;37913;48.370;10.930;2022-08-16T10:28:17;136.55;;;124.18;;
13255;SDS011;37913;48.370;10.930;2022-08-16T10:30:45;136.38;;;124.78;;
13255;SDS011;37913;48.370;10.930;2022-08-16T10:33:12;137.50;;;125.00;;
13255;SDS011;37913;48.370;10.930;2022-08-16T10:35:41;133.45;;;121.70;;
13255;SDS011;37913;48.370;10.930;2022-08-16T10:38:09;136.38;;;125.80;;
13255;SDS011;37913;48.370;10.930;2022-08-16T10:40:38;141.82;;;129.07;;
13255;SDS011;37913;48.370;10.930;2022-08-16T10:43:05;135.68;;;123.68;;
13255;SDS011;37913;48.370;10.930;2022-08-16T10:45:32;137.48;;;125.10;;
13255;SDS011;37913;48.370;10.930;2022-08-16T10:47:59;140.43;;;127.30;;
13255;SDS011;37913;48.370;10.930;2022-08-16T10:50:27;137.98;;;126.07;;
13255;SDS011;37913;48.370;10.930;2022-08-16T10:52:56;142.45;;;130.43;;
13255;SDS011;37913;48.370;10.930;2022-08-16T10:55:23;141.25;;;129.55;;
13255;SDS011;37913;48.370;10.930;2022-08-16T10:57:53;140.63;;;128.60;;
13255;SDS011;37913;48.370;10.930;2022-08-16T11:00:20;135.55;;;123.60;;
13255;SDS011;37913;48.370;10.930;2022-08-16T11:02:48;142.82;;;129.63;;
13255;SDS011;37913;48.370;10.930;2022-08-16T11:05:16;141.43;;;128.85;;
13255;SDS011;37913;48.370;10.930;2022-08-16T11:07:44;141.48;;;128.88;;
13255;SDS011;37913;48.370;10.930;2022-08-16T11:10:14;140.18;;;127.13;;
13255;SDS011;37913;48.370;10.930;2022-08-16T11:12:45;140.00;;;127.40;;
13255;SDS011;37913;48.370;10.930;2022-08-16T11:15:11;138.85;;;126.25;;
13255;SDS011;37913;48.370;10.930;2022-08-16T11:17:38;141.73;;;128.88;;
13255;SDS011;37913;48.370;10.930;2022-08-16T11:20:06;138.60;;;125.78;;
13255;SDS011;37913;48.370;10.930;2022-08-16T11:22:37;135.90;;;123.38;;
13255;SDS011;37913;48.370;10.930;2022-08-16T11:25:06;141.73;;;129.07;;
13255;SDS011;37913;48.370;10.930;2022-08-16T11:27:35;136.75;;;124.03;;
13255;SDS011;37913;48.370;10.930;2022-08-16T11:30:03;138.75;;;126.93;;
13255;SDS011;37913;48.370;10.930;2022-08-16T11:32:32;135.40;;;123.50;;
13255;SDS011;37913;48.370;10.930;2022-08-16T11:35:00;145.52;;;129.30;;
13255;SDS011;37913;48.370;10.930;2022-08-16T11:37:29;134.93;;;123.03;;
13255;SDS011;37913;48.370;10.930;2022-08-16T11:39:57;133.00;;;122.13;;
13255;SDS011;37913;48.370;10.930;2022-08-16T11:42:24;137.45;;;125.18;;
13255;SDS011;37913;48.370;10.930;2022-08-16T11:44:52;145.27;;;124.80;;
13255;SDS011;37913;48.370;10.930;2022-08-16T11:47:19;122.32;;;110.50;;
13255;SDS011;37913;48.370;10.930;2022-08-16T11:49:46;122.57;;;109.68;;
13255;SDS011;37913;48.370;10.930;2022-08-16T11:52:13;116.80;;;104.25;;
13255;SDS011;37913;48.370;10.930;2022-08-16T11:54:41;113.82;;;101.80;;
13255;SDS011;37913;48.370;10.930;2022-08-16T11:57:08;108.93;;;97.72;;
13255;SDS011;37913;48.370;10.930;2022-08-16T11:59:36;110.65;;;99.18;;
13255;SDS011;37913;48.370;10.930;2022-08-16T12:02:04;117.75;;;105.82;;
13255;SDS011;37913;48.370;10.930;2022-08-16T12:04:33;119.20;;;107.95;;
13255;SDS011;37913;48.370;10.930;2022-08-16T12:07:00;124.65;;;112.63;;
13255;SDS011;37913;48.370;10.930;2022-08-16T12:09:29;133.45;;;120.63;;
13255;SDS011;37913;48.370;10.930;2022-08-16T12:11:56;132.98;;;121.00;;
13255;SDS011;37913;48.370;10.930;2022-08-16T12:14:24;129.88;;;118.28;;
13255;SDS011;37913;48.370;10.930;2022-08-16T12:16:52;134.55;;;123.28;;
13255;SDS011;37913;48.370;10.930;2022-08-16T12:19:22;141.23;;;128.32;;
13255;SDS011;37913;48.370;10.930;2022-08-16T12:21:50;129.63;;;119.03;;
13255;SDS011;37913;48.370;10.930;2022-08-16T12:24:17;135.70;;;121.78;;
13255;SDS011;37913;48.370;10.930;2022-08-16T12:26:44;130.32;;;117.97;;
13255;SDS011;37913;48.370;10.930;2022-08-16T12:29:12;132.65;;;119.93;;
13255;SDS011;37913;48.370;10.930;2022-08-16T12:31:40;130.27;;;118.45;;
13255;SDS011;37913;48.370;10.930;2022-08-16T12:34:07;131.48;;;119.47;;
13255;SDS011;37913;48.370;10.930;2022-08-16T12:36:36;131.10;;;118.65;;
13255;SDS011;37913;48.370;10.930;2022-08-16T12:39:03;127.78;;;116.07;;
13255;SDS011;37913;48.370;10.930;2022-08-16T12:41:31;128.80;;;116.93;;
13255;SDS011;37913;48.370;10.930;2022-08-16T12:43:58;133.05;;;120.75;;
13255;SDS011;37913;48.370;10.930;2022-08-16T12:46:26;136.93;;;124.78;;
13255;SDS011;37913;48.370;10.930;2022-08-16T12:48:53;138.40;;;126.25;;
13255;SDS011;37913;48.370;10.930;2022-08-16T12:51:23;134.52;;;123.05;;
13255;SDS011;37913;48.370;10.930;2022-08-16T12:53:55;139.55;;;127.05;;
13255;SDS011;37913;48.370;10.930;2022-08-16T12:56:24;138.10;;;125.88;;
13255;SDS011;37913;48.370;10.930;2022-08-16T12:58:53;137.80;;;125.47;;
13255;SDS011;37913;48.370;10.930;2022-08-16T13:01:22;139.57;;;127.05;;
13255;SDS011;37913;48.370;10.930;2022-08-16T13:03:50;142.48;;;128.95;;
13255;SDS011;37913;48.370;10.930;2022-08-16T13:06:19;137.13;;;125.50;;
13255;SDS011;37913;48.370;10.930;2022-08-16T13:08:47;140.95;;;128.70;;
13255;SDS011;37913;48.370;10.930;2022-08-16T13:11:17;135.82;;;124.72;;
13255;SDS011;37913;48.370;10.930;2022-08-16T13:13:49;137.20;;;125.07;;
13255;SDS011;37913;48.370;10.930;2022-08-16T13:16:16;136.50;;;123.93;;
13255;SDS011;37913;48.370;10.930;2022-08-16T13:18:43;133.25;;;121.53;;
13255;SDS011;37913;48.370;10.930;2022-08-16T13:21:10;136.48;;;123.43;;
13255;SDS011;37913;48.370;10.930;2022-08-16T13:23:37;130.85;;;118.57;;
13255;SDS011;37913;48.370;10.930;2022-08-16T13:26:04;126.28;;;115.45;;
13255;SDS011;37913;48.370;10.930;2022-08-16T13:28:34;128.38;;;116.30;;
13255;SDS011;37913;48.370;10.930;2022-08-16T13:31:01;137.38;;;122.43;;
13255;SDS011;37913;48.370;10.930;2022-08-16T13:33:29;129.82;;;118.13;;
13255;SDS011;37913;48.370;10.930;2022-08-16T13:36:02;129.35;;;118.03;;
13255;SDS011;37913;48.370;10.930;2022-08-16T13:38:32;128.60;;;117.82;;
13255;SDS011;37913;48.370;10.930;2022-08-16T13:40:59;130.05;;;118.38;;
13255;SDS011;37913;48.370;10.930;2022-08-16T13:43:28;131.55;;;120.05;;
13255;SDS011;37913;48.370;10.930;2022-08-16T13:45:59;138.18;;;125.32;;
13255;SDS011;37913;48.370;10.930;2022-08-16T13:48:27;138.13;;;125.70;;
13255;SDS011;37913;48.370;10.930;2022-08-16T13:50:55;131.02;;;120.32;;
13255;SDS011;37913;48.370;10.930;2022-08-16T13:53:23;136.52;;;124.45;;
13255;SDS011;37913;48.370;10.930;2022-08-16T13:55:52;136.88;;;124.07;;
13255;SDS011;37913;48.370;10.930;2022-08-16T13:58:20;135.48;;;122.63;;
13255;SDS011;37913;48.370;10.930;2022-08-16T14:00:47;127.93;;;115.68;;
13255;SDS011;37913;48.370;10.930;2022-08-16T14:03:15;126.45;;;113.72;;